181 Соболиная

Карта отелей и гостиниц, располагающихся рядом с аэропортом 181 Соболиная :

181 Соболиная Томская область 58° 27' 31.9716" N, 79° 31' 54.1596" E
181 Соболиная Томская область 58° 27' 31.9716" N, 79° 31' 54.1596" E
Код аэродрома ИКАО
UNSB
Код аэродрома RU
УНСБ
Координаты
N58.45888° E079.53171°
Превышение над уровнем моря
74
Основная полоса
08/26
Курс магнитный
083,6/263,6
Длина основной ВПП
20
Ширина основной ВПП
20
Покрытие основной ВПП
Твёрдое
Освещение ВПП
Нет
Тип: 
Вертодром
Класс аэродрома: 
Принадлежность: 
ГА
Статус: 
Действующий
Сайт: 
E-mail аэродрома: 
Страна: 
Россия
Регион: 
Томская область
Город: 
Дополнительная информация: 

Найти трансфер

С помощью этой формы Вы можете найти трансфер из аэропорта 181 Соболиная в город, аэропорт или вокзал:

Карта места

Javascript is required to view this map.

Погода в аэропортах:

Авиационная погода в Виннице

Регион: 
Погода METAR: 
UKWW 251530Z 13004MPS 4100 -RA BR OVC005 06/06 Q0992 R13/290055 NOSIG
Время наблюдения
2021-01-25T15:30:00Z
Температура C
6.0
Точка росы
6.0
Направление ветра
130
Скорость ветра (узлы)
8
Метео видимость
2.55
Явления погоды
-RA BR
Условия полета
IFR
Аэропорт подробнее: 

Авиационная погода в Якутске

Регион: 
Погода METAR: 
UEEE 251830Z 32001MPS 0200 0150NE R23L/0550N FG NSC M51/M57 Q1043 R23L/450150 NOSIG RMK QFE773
Время наблюдения
2021-01-25T18:30:00Z
Температура C
-51.0
Точка росы
-57.0
Направление ветра
320
Скорость ветра (узлы)
2
Метео видимость
0.12
Явления погоды
FG
Условия полета
LIFR
Аэропорт подробнее: 

Авиационная погода в Ивало

Регион: 
Погода METAR: 
EFIV 251850Z VRB02KT 9999 -SHSN OVC011 M12/M13 Q1005
Время наблюдения
2021-01-25T18:50:00Z
Температура C
-12.0
Точка росы
-13.0
Направление ветра
0
Скорость ветра (узлы)
2
Метео видимость
6.21
Явления погоды
-SHSN
Условия полета
MVFR

Авиационная погода в аэропорту Имени Германа Титова

Регион: 
Погода METAR: 
UNBB 251830Z 13003MPS 8000 -SN SCT016 M28/M32 Q1034 R24/420345 NOSIG RMK QFE753
Время наблюдения
2021-01-25T18:30:00Z
Температура C
-28.0
Точка росы
-32.0
Направление ветра
130
Скорость ветра (узлы)
6
Метео видимость
4.97
Явления погоды
-SN
Условия полета
MVFR
Аэропорт подробнее: